Time;durP1;ratioP1;P1;durP2;ratioP2;P2;SDS_P1;SDS_P2;PMS_P1;PMS_P2;Temp;Humidity;BMP_temperature;BMP_pressure;BME280_temperature;BME280_humidity;BME280_pressure;Samples;Min_cycle;Max_cycle;Signal;HPM_P1;HPM_P2
2023/04/13 00:00:37;;;;;;;4.70;4.20;;;4.50;99.90;;;;;;6183629;23;20253;-82
2023/04/13 00:03:04;;;;;;;7.07;4.70;;;4.50;99.90;;;;;;6210883;23;20992;-83
2023/04/13 00:05:30;;;;;;;6.17;4.27;;;4.40;1.00;;;;;;6210900;23;20212;-82
2023/04/13 00:07:56;;;;;;;9.33;5.00;;;4.40;1.00;;;;;;6209737;23;20181;-82
2023/04/13 00:10:22;;;;;;;9.97;4.50;;;4.40;1.00;;;;;;6184276;23;20216;-82
2023/04/13 00:12:48;;;;;;;8.13;4.23;;;4.40;1.00;;;;;;6210298;23;20154;-82
2023/04/13 00:15:16;;;;;;;9.43;4.43;;;4.40;99.90;;;;;;6184190;23;20162;-82
2023/04/13 00:17:42;;;;;;;8.17;4.17;;;4.50;1.00;;;;;;6185821;23;20166;-82
2023/04/13 00:20:12;;;;;;;7.47;4.13;;;4.60;1.00;;;;;;6184761;23;20213;-82
2023/04/13 00:22:39;;;;;;;5.50;4.20;;;4.70;99.90;;;;;;6185406;23;20185;-84
2023/04/13 00:25:05;;;;;;;6.60;4.00;;;4.80;99.90;;;;;;6212420;23;20150;-81
2023/04/13 00:27:31;;;;;;;5.73;3.80;;;4.80;1.00;;;;;;6183617;23;20164;-82
2023/04/13 00:29:57;;;;;;;10.43;4.10;;;4.90;95.90;;;;;;6211021;23;20206;-82
2023/04/13 00:32:24;;;;;;;7.87;4.63;;;5.00;1.00;;;;;;6183844;23;20173;-82
2023/04/13 00:34:50;;;;;;;8.27;4.53;;;5.00;99.90;;;;;;6183144;23;20173;-82
2023/04/13 00:37:17;;;;;;;6.60;3.87;;;5.00;1.00;;;;;;6182023;23;20257;-82
2023/04/13 00:39:45;;;;;;;5.63;4.23;;;5.10;99.90;;;;;;6182585;23;20193;-82
2023/04/13 00:42:11;;;;;;;8.33;4.80;;;5.10;99.90;;;;;;6181301;23;20197;-83
2023/04/13 00:44:37;;;;;;;7.03;4.80;;;5.10;1.00;;;;;;6181611;23;20166;-81
2023/04/13 00:47:04;;;;;;;8.80;5.10;;;5.10;1.00;;;;;;6207569;23;20660;-82
2023/04/13 00:49:32;;;;;;;7.17;5.37;;;5.80;1.00;;;;;;6206921;23;20248;-82
2023/04/13 00:51:59;;;;;;;8.03;5.70;;;5.10;1.00;;;;;;6180989;23;20677;-83
2023/04/13 00:54:26;;;;;;;7.70;5.50;;;5.20;1.00;;;;;;6180960;23;20167;-83
2023/04/13 00:56:53;;;;;;;10.23;6.67;;;5.20;1.00;;;;;;6211144;23;20178;-83
2023/04/13 00:59:19;;;;;;;8.97;5.97;;;5.20;1.00;;;;;;6184761;23;20171;-82
2023/04/13 01:01:49;;;;;;;11.93;7.73;;;5.20;1.00;;;;;;6210717;23;20248;-82
2023/04/13 01:04:17;;;;;;;9.20;6.53;;;5.20;1.00;;;;;;6183799;23;20881;-85
2023/04/13 01:06:54;;;;;;;9.77;7.70;;;5.20;1.00;;;;;;6183965;23;20174;-82
2023/04/13 01:09:55;;;;;;;9.87;7.90;;;5.20;1.00;;;;;;6182969;23;20216;-83
2023/04/13 01:12:38;;;;;;;12.33;8.87;;;5.20;1.00;;;;;;6183017;23;20539;-83
2023/04/13 01:15:08;;;;;;;12.23;8.77;;;5.30;1.00;;;;;;6185979;23;20151;-82
2023/04/13 01:17:36;;;;;;;12.53;8.43;;;5.40;99.90;;;;;;6187812;23;20642;-82
2023/04/13 01:20:09;;;;;;;12.53;8.67;;;5.40;47.30;;;;;;6212028;23;20184;-83
2023/04/13 01:22:38;;;;;;;11.00;7.97;;;5.40;1.00;;;;;;6211747;23;20253;-82
2023/04/13 01:25:24;;;;;;;9.70;7.80;;;5.40;1.00;;;;;;6187156;23;20204;-82
2023/04/13 01:28:11;;;;;;;11.50;7.77;;;5.60;1.00;;;;;;6184703;23;20166;-85
2023/04/13 01:30:38;;;;;;;9.60;7.40;;;5.50;1.00;;;;;;6212890;23;20186;-83
2023/04/13 01:33:05;;;;;;;9.97;7.43;;;5.50;99.90;;;;;;6186781;23;20162;-83
2023/04/13 01:35:31;;;;;;;8.97;7.33;;;5.50;99.90;;;;;;6185581;23;20173;-83
2023/04/13 01:37:57;;;;;;;8.63;7.30;;;5.60;99.90;;;;;;6209911;23;20154;-82
2023/04/13 01:40:25;;;;;;;9.53;7.20;;;5.50;99.90;;;;;;6210096;23;20182;-82
2023/04/13 01:42:51;;;;;;;8.73;6.87;;;5.50;99.90;;;;;;6185290;23;20232;-83
2023/04/13 01:45:28;;;;;;;8.13;6.60;;;5.50;99.90;;;;;;6186217;23;20169;-82
2023/04/13 01:48:20;;;;;;;7.97;6.60;;;5.60;99.90;;;;;;6212225;23;20154;-83
2023/04/13 01:50:51;;;;;;;7.87;6.90;;;5.60;99.90;;;;;;6185922;23;20186;-82
2023/04/13 01:53:19;;;;;;;8.60;6.27;;;5.60;1.00;;;;;;6185235;23;20204;-82
2023/04/13 01:55:47;;;;;;;9.37;5.90;;;5.60;1.00;;;;;;6184949;23;20634;-82
2023/04/13 01:58:14;;;;;;;6.80;5.83;;;5.60;1.00;;;;;;6212712;23;20162;-83
2023/04/13 02:00:40;;;;;;;5.40;4.83;;;5.70;99.90;;;;;;6185223;23;20189;-83
2023/04/13 02:03:08;;;;;;;7.70;5.50;;;5.70;99.90;;;;;;6183245;23;20182;-82
2023/04/13 02:05:37;;;;;;;5.53;5.00;;;5.70;99.90;;;;;;6183101;23;20158;-83
2023/04/13 02:08:09;;;;;;;5.10;4.57;;;5.60;99.90;;;;;;6182740;23;20158;-83
2023/04/13 02:10:36;;;;;;;4.47;3.50;;;5.60;99.90;;;;;;6182956;23;20269;-82
2023/04/13 02:13:06;;;;;;;5.63;4.10;;;5.60;99.90;;;;;;6185777;23;20216;-83
2023/04/13 02:15:36;;;;;;;5.80;3.60;;;5.60;99.90;;;;;;6185480;23;20165;-84
2023/04/13 02:18:03;;;;;;;5.53;3.40;;;5.70;99.90;;;;;;6187051;23;20504;-83
2023/04/13 02:20:32;;;;;;;5.50;3.50;;;5.70;99.90;;;;;;6214413;23;20181;-83
2023/04/13 02:22:58;;;;;;;3.40;3.10;;;5.80;99.90;;;;;;6187130;23;20255;-82
2023/04/13 02:25:24;;;;;;;5.17;3.37;;;5.80;99.90;;;;;;6188507;23;20165;-84
2023/04/13 02:27:50;;;;;;;5.20;3.33;;;5.90;99.90;;;;;;6214242;23;20162;-82
2023/04/13 02:30:16;;;;;;;4.07;3.17;;;5.90;99.90;;;;;;6210417;23;20646;-83
2023/04/13 02:32:46;;;;;;;4.27;3.07;;;5.80;99.90;;;;;;6185765;23;20610;-82
2023/04/13 02:35:11;;;;;;;4.77;3.00;;;5.70;99.90;;;;;;6182763;23;20212;-82
2023/04/13 02:37:39;;;;;;;4.20;3.20;;;5.70;99.90;;;;;;6207759;23;20166;-80
2023/04/13 02:40:09;;;;;;;5.00;3.70;;;5.50;99.90;;;;;;6180944;23;20389;-81
2023/04/13 02:42:35;;;;;;;6.73;3.70;;;5.30;99.90;;;;;;6181605;23;20236;-83
2023/04/13 02:45:03;;;;;;;6.70;4.37;;;5.20;99.90;;;;;;6211519;23;20155;-82
2023/04/13 02:47:28;;;;;;;4.50;4.10;;;5.20;99.90;;;;;;6210020;23;20151;-83
2023/04/13 02:49:54;;;;;;;5.30;4.00;;;5.10;1.00;;;;;;6209486;23;20185;-82
2023/04/13 02:52:20;;;;;;;6.20;3.53;;;5.10;1.00;;;;;;6184987;23;20216;-83
2023/04/13 02:54:46;;;;;;;4.93;2.70;;;5.10;1.00;;;;;;6215525;23;20182;-83
2023/04/13 02:57:12;;;;;;;2.67;2.43;;;5.20;1.00;;;;;;6187667;23;20505;-81
2023/04/13 02:59:39;;;;;;;6.87;2.63;;;5.10;1.00;;;;;;6188164;23;20185;-82
2023/04/13 03:02:05;;;;;;;4.33;2.43;;;5.30;1.00;;;;;;6216201;23;20174;-81
2023/04/13 03:04:31;;;;;;;2.77;1.97;;;5.30;1.00;;;;;;6188926;23;20204;-82
2023/04/13 03:06:57;;;;;;;2.70;2.00;;;5.30;1.00;;;;;;6216228;23;20155;-83
2023/04/13 03:09:24;;;;;;;3.57;1.70;;;5.40;99.90;;;;;;6189441;23;20231;-82
2023/04/13 03:11:50;;;;;;;2.77;1.60;;;5.40;99.90;;;;;;6217858;23;20618;-82
2023/04/13 03:14:22;;;;;;;2.17;1.47;;;5.40;99.90;;;;;;6189362;23;20210;-84
2023/04/13 03:16:48;;;;;;;3.50;1.30;;;5.50;99.90;;;;;;6215322;23;20142;-84
2023/04/13 03:19:15;;;;;;;2.17;1.40;;;5.50;99.90;;;;;;6215975;23;20158;-84
2023/04/13 03:21:44;;;;;;;2.30;1.20;;;5.60;99.90;;;;;;6188109;23;20193;-83
2023/04/13 03:24:11;;;;;;;2.27;1.23;;;5.70;99.90;;;;;;6213777;23;20158;-81
2023/04/13 03:26:37;;;;;;;1.57;1.00;;;5.60;99.90;;;;;;6186686;23;20165;-81
2023/04/13 03:29:02;;;;;;;2.27;1.20;;;5.70;99.90;;;;;;6181962;23;20507;-82
2023/04/13 03:31:29;;;;;;;2.60;1.33;;;5.60;99.90;;;;;;6182262;23;20844;-81
2023/04/13 03:33:56;;;;;;;2.77;1.37;;;5.50;99.90;;;;;;6209824;23;20154;-81
2023/04/13 03:36:22;;;;;;;2.20;1.53;;;5.30;99.90;;;;;;6208523;23;20154;-82
2023/04/13 03:38:48;;;;;;;2.63;1.40;;;5.30;99.90;;;;;;6181733;23;20537;-82
2023/04/13 03:41:14;;;;;;;2.33;1.77;;;5.20;99.90;;;;;;6182353;23;20622;-84
2023/04/13 03:43:40;;;;;;;3.17;1.80;;;5.10;99.90;;;;;;6181745;23;20197;-82
2023/04/13 03:46:06;;;;;;;3.53;1.90;;;5.00;99.90;;;;;;6181805;23;20162;-81
2023/04/13 03:48:32;;;;;;;3.77;3.07;;;4.90;99.90;;;;;;6181175;23;20158;-83
2023/04/13 03:50:58;;;;;;;4.00;3.63;;;4.80;99.90;;;;;;6208945;23;20217;-82
2023/04/13 03:53:24;;;;;;;3.47;3.07;;;4.80;99.90;;;;;;6181436;23;20173;-83
2023/04/13 03:55:50;;;;;;;5.07;3.73;;;4.80;99.90;;;;;;6181827;23;20245;-83
2023/04/13 03:58:16;;;;;;;6.33;4.07;;;4.70;99.90;;;;;;6181066;23;20681;-83
2023/04/13 04:00:42;;;;;;;3.30;2.90;;;4.70;99.90;;;;;;6181535;23;20186;-81
2023/04/13 04:03:08;;;;;;;6.57;4.17;;;4.60;99.90;;;;;;6208448;23;20267;-80
2023/04/13 04:05:35;;;;;;;4.57;3.77;;;4.50;99.90;;;;;;6182283;23;20567;-81
2023/04/13 04:08:01;;;;;;;4.93;3.13;;;4.50;99.90;;;;;;6210719;23;20146;-81
2023/04/13 04:10:27;;;;;;;3.57;3.00;;;4.50;99.90;;;;;;6183076;23;20194;-81
2023/04/13 04:12:53;;;;;;;3.60;3.07;;;4.40;99.90;;;;;;6182248;23;20173;-81
2023/04/13 04:15:18;;;;;;;6.50;3.07;;;4.40;99.90;;;;;;6182551;23;20171;-81
2023/04/13 04:17:44;;;;;;;3.27;2.70;;;4.40;99.90;;;;;;6208907;23;20221;-83
2023/04/13 04:20:10;;;;;;;3.23;2.10;;;4.30;99.90;;;;;;6188190;23;20182;-83
2023/04/13 04:22:35;;;;;;;2.40;1.50;;;4.30;99.90;;;;;;6187928;23;20186;-83
2023/04/13 04:25:01;;;;;;;2.97;1.30;;;4.40;99.90;;;;;;6184684;23;20158;-82
2023/04/13 04:27:27;;;;;;;1.73;1.20;;;4.70;99.90;;;;;;6186375;23;20254;-83
2023/04/13 04:29:57;;;;;;;2.17;0.70;;;5.00;99.90;;;;;;6213184;23;20180;-83
2023/04/13 04:32:24;;;;;;;2.30;1.27;;;5.30;99.90;;;;;;6186343;23;20146;-81
2023/04/13 04:34:51;;;;;;;2.87;1.30;;;5.50;99.90;;;;;;6211975;23;20153;-82
2023/04/13 04:37:20;;;;;;;2.07;1.00;;;5.60;99.90;;;;;;6211294;23;20155;-84
2023/04/13 04:39:46;;;;;;;4.33;0.97;;;5.70;99.90;;;;;;6182663;23;20638;-81
2023/04/13 04:42:13;;;;;;;2.20;1.10;;;5.70;99.90;;;;;;6213539;23;20201;-85
2023/04/13 04:44:39;;;;;;;6.90;1.83;;;5.70;90.10;;;;;;6190038;23;20537;-83
2023/04/13 04:47:04;;;;;;;2.63;0.83;;;5.70;90.30;;;;;;6190925;23;20154;-82
2023/04/13 04:49:30;;;;;;;3.00;1.07;;;5.70;78.90;;;;;;6188806;23;20177;-84
2023/04/13 04:51:56;;;;;;;1.30;0.80;;;5.60;72.30;;;;;;6186562;23;20162;-82
2023/04/13 04:54:23;;;;;;;2.70;0.70;;;5.60;70.90;;;;;;6183946;23;20221;-80
2023/04/13 04:56:50;;;;;;;2.73;0.90;;;5.60;72.50;;;;;;6183866;23;20262;-82
2023/04/13 04:59:16;;;;;;;3.07;1.17;;;5.70;67.90;;;;;;6185106;23;20150;-84
2023/04/13 05:01:42;;;;;;;1.87;0.90;;;5.70;59.60;;;;;;6184810;23;20157;-81
2023/04/13 05:04:08;;;;;;;1.27;0.70;;;5.70;56.20;;;;;;6213097;23;20911;-84
2023/04/13 05:06:34;;;;;;;2.13;0.83;;;5.80;53.80;;;;;;6187051;23;20812;-81
2023/04/13 05:09:01;;;;;;;1.27;0.80;;;5.70;53.10;;;;;;6185823;23;20173;-82
2023/04/13 05:11:28;;;;;;;3.27;0.90;;;5.80;49.20;;;;;;6213410;23;20249;-81
2023/04/13 05:13:55;;;;;;;2.33;0.77;;;5.90;39.10;;;;;;6185955;23;20245;-84
2023/04/13 05:16:21;;;;;;;3.10;0.87;;;6.30;43.70;;;;;;6185990;23;20166;-83
2023/04/13 05:18:47;;;;;;;1.13;0.67;;;6.00;36.80;;;;;;6212629;23;20193;-82
2023/04/13 05:21:14;;;;;;;3.40;0.90;;;6.00;31.00;;;;;;6185281;23;20670;-82
2023/04/13 05:23:40;;;;;;;0.77;0.60;;;6.10;25.50;;;;;;6185902;23;20190;-83
2023/04/13 05:26:08;;;;;;;1.07;0.67;;;6.20;19.40;;;;;;6186373;23;20158;-82
2023/04/13 05:28:34;;;;;;;1.17;0.60;;;6.30;9.60;;;;;;6186116;23;20154;-82
2023/04/13 05:31:05;;;;;;;1.50;0.70;;;6.40;7.00;;;;;;6185657;23;20187;-82
2023/04/13 05:33:31;;;;;;;2.13;0.90;;;6.40;6.30;;;;;;6184876;23;20557;-81
2023/04/13 05:35:57;;;;;;;1.73;1.10;;;6.40;7.20;;;;;;6185785;23;20162;-82
2023/04/13 05:38:23;;;;;;;3.97;0.63;;;6.40;9.10;;;;;;6185470;23;20202;-81
2023/04/13 05:40:48;;;;;;;1.17;0.60;;;6.40;2.60;;;;;;6186244;23;20182;-81
2023/04/13 05:43:14;;;;;;;3.30;0.70;;;6.40;1.00;;;;;;6212976;23;20187;-84
2023/04/13 05:45:40;;;;;;;2.20;0.70;;;6.50;1.00;;;;;;6211922;23;20501;-80
2023/04/13 05:48:06;;;;;;;1.47;0.70;;;6.50;1.00;;;;;;6181345;23;20218;-83
2023/04/13 05:50:31;;;;;;;3.97;0.97;;;6.60;1.00;;;;;;6183072;23;20182;-81
2023/04/13 05:52:57;;;;;;;1.63;0.60;;;6.70;1.00;;;;;;6181462;23;20633;-82
2023/04/13 05:55:23;;;;;;;0.73;0.70;;;6.90;1.00;;;;;;6182209;23;20170;-81
2023/04/13 05:57:50;;;;;;;1.70;0.93;;;7.00;1.00;;;;;;6182701;23;20158;-81
2023/04/13 06:00:18;;;;;;;2.80;0.77;;;7.20;1.00;;;;;;6210767;23;20174;-81
2023/04/13 06:02:47;;;;;;;1.63;0.90;;;7.30;1.00;;;;;;6213045;23;20273;-83
2023/04/13 06:05:13;;;;;;;1.73;0.90;;;7.50;1.00;;;;;;6210020;23;20154;-80
2023/04/13 06:07:42;;;;;;;1.83;0.90;;;7.70;1.00;;;;;;6181126;23;20154;-82
2023/04/13 06:10:09;;;;;;;3.80;0.70;;;7.90;1.00;;;;;;6209208;23;20194;-81
2023/04/13 06:12:34;;;;;;;1.93;0.83;;;8.00;1.00;;;;;;6184933;23;20201;-80
2023/04/13 06:15:00;;;;;;;1.47;0.60;;;8.20;1.00;;;;;;6183458;23;20170;-83
2023/04/13 06:17:26;;;;;;;2.60;1.20;;;8.30;1.00;;;;;;6183141;23;20212;-81
2023/04/13 06:19:53;;;;;;;1.67;0.97;;;8.30;1.00;;;;;;6181319;23;21110;-80
2023/04/13 06:22:19;;;;;;;1.23;0.70;;;8.20;1.00;;;;;;6181737;23;20182;-80
2023/04/13 06:24:44;;;;;;;2.13;0.80;;;8.20;1.00;;;;;;6181411;23;20207;-81
2023/04/13 06:27:10;;;;;;;1.13;0.70;;;8.20;1.00;;;;;;6181841;23;20249;-81
2023/04/13 06:29:37;;;;;;;2.57;0.80;;;8.10;1.00;;;;;;6184043;23;20162;-80
2023/04/13 06:32:03;;;;;;;3.60;0.80;;;8.20;1.00;;;;;;6181488;23;20197;-80
2023/04/13 06:34:29;;;;;;;2.87;1.00;;;8.20;1.00;;;;;;6181205;23;20162;-81
2023/04/13 06:36:56;;;;;;;1.37;0.80;;;8.10;1.00;;;;;;6181594;23;20166;-82
2023/04/13 06:39:22;;;;;;;2.70;0.70;;;8.00;1.00;;;;;;6180296;23;20544;-81
2023/04/13 06:41:47;;;;;;;2.17;1.00;;;7.90;1.00;;;;;;6207070;23;20622;-81
2023/04/13 06:44:13;;;;;;;1.53;0.97;;;7.90;1.00;;;;;;6207182;23;20158;-82
2023/04/13 06:46:39;;;;;;;2.73;2.20;;;9.30;1.00;;;;;;6180804;23;20200;-82
2023/04/13 06:49:04;;;;;;;1.67;0.80;;;11.20;1.00;;;;;;6206385;23;20150;-80
2023/04/13 06:51:30;;;;;;;2.90;1.57;;;12.20;1.00;;;;;;6181147;23;20185;-83
2023/04/13 06:53:56;;;;;;;2.43;1.23;;;12.70;1.00;;;;;;6180826;23;20174;-82
2023/04/13 06:56:21;;;;;;;2.37;1.20;;;13.00;1.00;;;;;;6207590;23;20546;-82
2023/04/13 06:58:47;;;;;;;1.70;0.90;;;13.10;1.00;;;;;;6206893;23;20639;-81
2023/04/13 07:01:14;;;;;;;1.87;0.90;;;13.00;1.00;;;;;;6180561;23;20261;-82
2023/04/13 07:03:40;;;;;;;3.10;1.00;;;12.80;1.00;;;;;;6180066;23;20658;-82
2023/04/13 07:06:07;;;;;;;2.57;0.83;;;11.60;1.00;;;;;;6179779;23;20168;-81
2023/04/13 07:08:33;;;;;;;3.37;0.80;;;10.80;1.00;;;;;;6184033;23;20170;-81
2023/04/13 07:11:01;;;;;;;1.87;0.93;;;10.00;1.00;;;;;;6212031;23;20174;-82
2023/04/13 07:13:26;;;;;;;2.07;0.90;;;9.50;1.00;;;;;;6185865;23;21048;-83
2023/04/13 07:15:52;;;;;;;2.47;1.07;;;9.40;1.00;;;;;;6212919;23;20229;-82
2023/04/13 07:18:18;;;;;;;1.60;1.10;;;9.80;1.00;;;;;;6185120;23;20155;-80
2023/04/13 07:20:43;;;;;;;1.67;1.00;;;9.50;1.00;;;;;;6212007;23;20506;-81
2023/04/13 07:23:09;;;;;;;1.43;0.83;;;9.50;1.00;;;;;;6186145;23;20187;-82
2023/04/13 07:25:35;;;;;;;2.03;0.90;;;9.40;1.00;;;;;;6213992;23;20883;-84
2023/04/13 07:28:01;;;;;;;1.53;0.70;;;9.30;1.00;;;;;;6188217;23;20602;-81
2023/04/13 07:30:26;;;;;;;2.30;0.83;;;9.40;1.00;;;;;;6187311;23;20189;-83
2023/04/13 07:32:52;;;;;;;2.00;0.80;;;9.40;1.00;;;;;;6214395;23;20161;-82
2023/04/13 07:35:18;;;;;;;2.60;0.90;;;9.40;1.00;;;;;;6183093;23;20189;-81
2023/04/13 07:37:45;;;;;;;3.07;0.80;;;9.50;1.00;;;;;;6181224;23;20927;-81
2023/04/13 07:40:11;;;;;;;2.80;1.20;;;9.60;1.00;;;;;;6209099;23;20485;-81
2023/04/13 07:42:38;;;;;;;2.50;0.80;;;9.50;1.00;;;;;;6183080;23;20704;-79
2023/04/13 07:45:04;;;;;;;2.87;0.77;;;9.50;1.00;;;;;;6185650;23;20177;-81
2023/04/13 07:47:30;;;;;;;2.27;0.70;;;9.60;1.00;;;;;;6186292;23;20163;-84
2023/04/13 07:49:55;;;;;;;3.03;0.83;;;9.70;1.00;;;;;;6213563;23;20244;-80
2023/04/13 07:52:21;;;;;;;2.60;0.97;;;9.70;1.00;;;;;;6214012;23;20150;-81
2023/04/13 07:54:47;;;;;;;4.37;1.17;;;9.80;1.00;;;;;;6214138;23;20773;-81
2023/04/13 07:57:13;;;;;;;2.60;0.93;;;10.00;1.00;;;;;;6187379;23;20214;-82
2023/04/13 07:59:38;;;;;;;2.83;0.97;;;10.10;1.00;;;;;;6186252;23;20189;-80
2023/04/13 08:02:04;;;;;;;3.47;1.10;;;10.20;1.00;;;;;;6214633;23;20681;-81
2023/04/13 08:04:30;;;;;;;3.90;1.07;;;10.10;1.00;;;;;;6187024;23;20649;-83
2023/04/13 08:06:57;;;;;;;2.67;0.80;;;10.00;1.00;;;;;;6185576;23;20158;-79
2023/04/13 08:09:22;;;;;;;4.10;0.80;;;10.10;1.00;;;;;;6214067;23;20176;-83
2023/04/13 08:11:48;;;;;;;3.50;0.90;;;10.70;1.00;;;;;;6187591;23;20190;-81
2023/04/13 08:14:14;;;;;;;1.63;0.57;;;10.20;1.00;;;;;;6187637;23;20532;-80
2023/04/13 08:16:40;;;;;;;4.93;1.20;;;10.30;1.00;;;;;;6186364;23;20201;-81
2023/04/13 08:19:06;;;;;;;2.50;0.70;;;10.50;1.00;;;;;;6187577;23;20154;-82
2023/04/13 08:21:31;;;;;;;7.13;1.03;;;10.60;1.00;;;;;;6186437;23;20189;-81
2023/04/13 08:23:57;;;;;;;2.97;0.80;;;10.60;1.00;;;;;;6185628;23;20644;-83
2023/04/13 08:26:23;;;;;;;1.83;0.83;;;10.60;1.00;;;;;;6212525;23;20221;-82
2023/04/13 08:28:51;;;;;;;3.50;1.00;;;10.60;1.00;;;;;;6211529;23;20590;-83
2023/04/13 08:31:17;;;;;;;1.97;0.60;;;10.60;1.00;;;;;;6187579;23;20215;-83
2023/04/13 08:33:43;;;;;;;1.70;0.80;;;10.70;1.00;;;;;;6189996;23;20837;-81
2023/04/13 08:36:08;;;;;;;2.27;0.70;;;10.50;1.00;;;;;;6191124;23;20162;-81
2023/04/13 08:38:34;;;;;;;2.17;0.80;;;10.40;1.00;;;;;;6190910;23;20172;-80
2023/04/13 08:41:02;;;;;;;3.60;0.70;;;10.40;1.00;;;;;;6192274;23;20186;-81
2023/04/13 08:43:28;;;;;;;2.07;0.80;;;10.40;1.00;;;;;;6188887;23;20660;-81
2023/04/13 08:45:53;;;;;;;1.23;0.77;;;10.30;1.00;;;;;;6214950;23;20150;-80
2023/04/13 08:48:21;;;;;;;1.83;0.70;;;10.20;1.00;;;;;;6191428;23;20162;-80
2023/04/13 08:50:51;;;;;;;2.10;0.60;;;10.20;1.00;;;;;;6218077;23;20167;-80
2023/04/13 08:53:17;;;;;;;2.47;0.77;;;10.20;1.00;;;;;;6193689;23;20165;-81
2023/04/13 08:55:46;;;;;;;2.20;0.83;;;10.20;1.00;;;;;;6190635;23;20162;-79
2023/04/13 08:58:15;;;;;;;3.13;0.93;;;10.20;1.00;;;;;;6190036;23;20150;-81
2023/04/13 09:00:42;;;;;;;5.47;1.00;;;10.20;1.00;;;;;;6191234;23;20585;-80
2023/04/13 09:03:10;;;;;;;2.17;0.73;;;10.30;1.00;;;;;;6191459;23;20714;-80
2023/04/13 09:05:40;;;;;;;2.90;0.80;;;10.30;1.00;;;;;;6190692;23;20158;-79
2023/04/13 09:08:08;;;;;;;2.03;0.87;;;10.40;1.00;;;;;;6191027;23;20158;-81
2023/04/13 09:10:34;;;;;;;3.20;0.87;;;10.40;1.00;;;;;;6191413;23;20189;-80
2023/04/13 09:13:00;;;;;;;1.87;0.63;;;11.40;1.00;;;;;;6219573;23;20138;-81
2023/04/13 09:15:26;;;;;;;1.63;0.83;;;10.50;1.00;;;;;;6188227;23;20209;-81
2023/04/13 09:17:52;;;;;;;1.67;0.60;;;10.60;1.00;;;;;;6187228;23;20166;-80
2023/04/13 09:20:21;;;;;;;3.17;0.90;;;10.80;1.00;;;;;;6212539;23;20178;-80
2023/04/13 09:22:48;;;;;;;1.90;0.60;;;10.70;1.00;;;;;;6185597;23;20289;-80
2023/04/13 09:25:27;;;;;;;1.20;0.70;;;10.70;1.00;;;;;;6212777;23;20154;-81
2023/04/13 09:27:53;;;;;;;3.40;0.80;;;10.80;1.00;;;;;;6185969;23;20232;-80
2023/04/13 09:30:23;;;;;;;2.33;0.80;;;10.90;1.00;;;;;;6211512;23;20166;-79
2023/04/13 09:33:09;;;;;;;2.80;0.93;;;11.00;1.00;;;;;;6184811;23;20639;-79
2023/04/13 09:35:36;;;;;;;2.47;0.60;;;11.10;1.00;;;;;;6184410;23;20167;-81
2023/04/13 09:38:01;;;;;;;4.37;1.00;;;11.00;1.00;;;;;;6184907;23;20155;-81
2023/04/13 09:40:27;;;;;;;3.57;1.10;;;11.00;1.00;;;;;;6209863;23;20654;-80
2023/04/13 09:42:57;;;;;;;1.03;0.70;;;11.10;1.00;;;;;;6182973;23;20692;-82
2023/04/13 09:45:23;;;;;;;5.40;1.40;;;11.10;1.00;;;;;;6210206;23;20150;-81
2023/04/13 09:47:49;;;;;;;2.87;0.90;;;11.00;1.00;;;;;;6184403;23;20158;-80
2023/04/13 09:50:22;;;;;;;2.90;0.70;;;10.90;1.00;;;;;;6210744;23;20170;-80
2023/04/13 09:52:59;;;;;;;2.67;0.90;;;11.00;1.00;;;;;;6183984;23;20233;-79
2023/04/13 09:55:26;;;;;;;2.80;0.60;;;11.20;1.00;;;;;;6183575;23;20154;-79
2023/04/13 09:57:51;;;;;;;1.80;0.70;;;11.40;1.00;;;;;;6183043;23;20196;-81
2023/04/13 10:00:20;;;;;;;1.75;0.60;;;11.90;1.00;;;;;;6208732;23;20526;-80
2023/04/13 10:02:51;;;;;;;1.80;0.60;;;11.90;1.00;;;;;;6208627;23;20174;-79
2023/04/13 10:05:18;;;;;;;1.90;0.60;;;11.80;1.00;;;;;;6181449;23;20162;-81
2023/04/13 10:07:44;;;;;;;2.93;0.73;;;11.80;1.00;;;;;;6181348;23;20162;-80
2023/04/13 10:10:11;;;;;;;1.77;0.70;;;11.80;1.00;;;;;;6206668;23;20194;-81
2023/04/13 10:12:44;;;;;;;0.90;0.60;;;11.80;1.00;;;;;;6207454;23;20138;-80
2023/04/13 10:15:17;;;;;;;1.88;0.70;;;12.00;1.00;;;;;;6215011;23;20146;-80
2023/04/13 10:18:31;;;;;;;2.28;0.57;;;12.10;1.00;;;;;;6216092;23;20205;-80
2023/04/13 10:20:58;;;;;;;1.23;0.70;;;12.20;1.00;;;;;;6195019;23;20241;-80
2023/04/13 10:23:24;;;;;;;2.17;0.70;;;12.30;1.00;;;;;;6188796;23;20220;-81
2023/04/13 10:25:51;;;;;;;1.83;0.60;;;12.30;1.00;;;;;;6187848;23;20226;-81
2023/04/13 10:28:17;;;;;;;1.65;0.50;;;12.20;1.00;;;;;;6187458;23;20162;-81
2023/04/13 10:30:50;;;;;;;2.28;0.68;;;12.30;1.00;;;;;;6189010;23;20198;-80
2023/04/13 10:33:16;;;;;;;2.22;0.68;;;12.40;1.00;;;;;;6188520;23;20158;-81
2023/04/13 10:35:52;;;;;;;2.80;0.80;;;12.70;1.00;;;;;;6187117;23;20162;-81
2023/04/13 10:38:18;;;;;;;0.80;0.60;;;12.90;1.00;;;;;;6213575;23;20224;-80
2023/04/13 10:40:45;;;;;;;1.30;0.70;;;12.90;1.00;;;;;;6212716;23;20173;-81
2023/04/13 10:43:11;;;;;;;1.50;0.80;;;12.80;1.00;;;;;;6215866;23;20281;-81
2023/04/13 10:45:37;;;;;;;1.63;0.80;;;12.70;1.00;;;;;;6188945;23;20209;-80
2023/04/13 10:48:04;;;;;;;2.15;0.68;;;12.80;1.00;;;;;;6188847;23;20154;-82
2023/04/13 10:50:30;;;;;;;2.50;0.70;;;13.00;1.00;;;;;;6215419;23;20615;-81
2023/04/13 10:53:03;;;;;;;1.60;0.70;;;13.20;1.00;;;;;;6184714;23;20155;-82
2023/04/13 10:55:30;;;;;;;1.00;0.60;;;13.50;1.00;;;;;;6185274;23;20606;-82
2023/04/13 10:57:57;;;;;;;3.13;0.50;;;13.70;1.00;;;;;;6213301;23;20177;-81
2023/04/13 11:00:24;;;;;;;2.72;0.68;;;13.60;1.00;;;;;;6212511;23;20246;-81
2023/04/13 11:02:52;;;;;;;2.15;0.70;;;13.70;1.00;;;;;;6185025;23;20265;-80
2023/04/13 11:05:21;;;;;;;2.47;0.57;;;13.80;1.00;;;;;;6184679;23;20576;-81
2023/04/13 11:07:48;;;;;;;0.88;0.50;;;13.80;1.00;;;;;;6211296;23;20154;-82
2023/04/13 11:10:15;;;;;;;2.13;0.70;;;13.70;1.00;;;;;;6210969;23;20186;-81
2023/04/13 11:12:51;;;;;;;1.33;0.55;;;13.70;1.00;;;;;;6184440;23;20197;-80
2023/04/13 11:15:28;;;;;;;1.88;0.60;;;13.80;1.00;;;;;;6185981;23;20185;-82
2023/04/13 11:17:56;;;;;;;1.35;0.30;;;13.70;1.00;;;;;;6185898;23;20559;-81
2023/04/13 11:20:33;;;;;;;0.68;0.47;;;13.60;1.00;;;;;;6185896;23;20250;-81
2023/04/13 11:23:02;;;;;;;3.03;0.50;;;13.50;1.00;;;;;;6187828;23;20197;-82
2023/04/13 11:25:29;;;;;;;1.35;0.63;;;13.40;1.00;;;;;;6186026;23;20460;-81
2023/04/13 11:27:59;;;;;;;5.20;0.90;;;13.30;1.00;;;;;;6186116;23;20169;-82
2023/04/13 11:30:25;;;;;;;1.67;0.57;;;13.20;1.00;;;;;;6212736;23;20197;-81
2023/04/13 11:32:52;;;;;;;2.08;0.55;;;13.20;1.00;;;;;;6186244;23;20168;-82
2023/04/13 11:35:18;;;;;;;3.85;0.82;;;13.20;1.00;;;;;;6185396;23;20169;-81
2023/04/13 11:37:47;;;;;;;2.65;0.57;;;13.20;1.00;;;;;;6212575;23;20610;-82
2023/04/13 11:40:16;;;;;;;1.15;0.50;;;13.20;1.00;;;;;;6184333;23;20182;-81
2023/04/13 11:42:57;;;;;;;1.60;0.50;;;13.00;1.00;;;;;;6213161;23;20178;-81
2023/04/13 11:45:26;;;;;;;1.50;0.65;;;12.90;1.00;;;;;;6185115;23;20214;-81
2023/04/13 11:47:52;;;;;;;2.00;0.80;;;13.10;1.00;;;;;;6212472;23;20603;-80
2023/04/13 11:50:19;;;;;;;1.08;0.50;;;13.00;1.00;;;;;;6212259;23;20634;-81
2023/04/13 11:52:46;;;;;;;1.48;0.50;;;13.00;1.00;;;;;;6185077;23;20438;-81
2023/04/13 11:55:13;;;;;;;0.93;0.50;;;13.10;1.00;;;;;;6213469;23;20154;-81
2023/04/13 11:57:40;;;;;;;0.88;0.38;;;13.10;1.00;;;;;;6184389;23;20162;-83
2023/04/13 12:00:16;;;;;;;0.85;0.32;;;13.60;1.00;;;;;;6184002;23;20354;-81
2023/04/13 12:02:42;;;;;;;1.25;0.47;;;12.90;1.00;;;;;;6183761;23;20177;-81
2023/04/13 12:05:18;;;;;;;0.90;0.50;;;12.90;1.00;;;;;;6184199;23;20158;-81
2023/04/13 12:07:44;;;;;;;1.30;0.50;;;12.80;1.00;;;;;;6183807;23;20150;-83
2023/04/13 12:10:09;;;;;;;1.98;0.75;;;12.70;1.00;;;;;;6211315;23;20185;-81
2023/04/13 12:12:36;;;;;;;1.60;0.60;;;12.60;1.00;;;;;;6180554;23;20503;-80
2023/04/13 12:15:03;;;;;;;0.80;0.80;;;12.60;1.00;;;;;;6179691;23;20212;-82
2023/04/13 12:17:32;;;;;;;0.80;0.60;;;12.80;1.00;;;;;;6179495;23;20238;-81
2023/04/13 12:19:59;;;;;;;0.47;0.38;;;13.10;1.00;;;;;;6179747;23;20186;-81
2023/04/13 12:22:55;;;;;;;1.55;0.50;;;13.10;1.00;;;;;;6179860;23;20186;-81
2023/04/13 12:25:22;;;;;;;0.90;0.60;;;13.10;1.00;;;;;;6159959;23;20658;-81
2023/04/13 12:27:53;;;;;;;3.80;0.70;;;13.20;1.00;;;;;;6206085;23;20466;-81
2023/04/13 12:30:21;;;;;;;1.70;0.60;;;13.40;1.00;;;;;;6180081;23;20185;-81
2023/04/13 12:32:56;;;;;;;1.35;0.40;;;13.50;1.00;;;;;;6179791;23;20162;-81
2023/04/13 12:35:21;;;;;;;1.25;0.60;;;13.40;1.00;;;;;;6206223;23;20142;-81
2023/04/13 12:37:48;;;;;;;1.08;0.60;;;13.20;1.00;;;;;;6206163;23;20158;-82
2023/04/13 12:40:15;;;;;;;2.10;0.60;;;13.00;1.00;;;;;;6179028;23;20182;-81
2023/04/13 12:42:45;;;;;;;1.17;0.73;;;13.00;1.00;;;;;;6178928;23;20262;-80
2023/04/13 12:45:12;;;;;;;1.27;0.70;;;13.10;1.00;;;;;;6179131;23;20192;-81
2023/04/13 12:47:38;;;;;;;0.77;0.50;;;13.20;1.00;;;;;;6179372;23;20609;-81
2023/04/13 12:50:05;;;;;;;0.73;0.43;;;13.40;1.00;;;;;;6206342;23;20392;-81
2023/04/13 12:52:31;;;;;;;0.90;0.52;;;12.70;1.00;;;;;;6179428;23;20162;-80
2023/04/13 12:54:58;;;;;;;1.27;0.40;;;12.40;1.00;;;;;;6178927;23;20162;-81
2023/04/13 12:57:23;;;;;;;1.73;0.80;;;12.30;1.00;;;;;;6178693;23;20217;-83
2023/04/13 12:59:49;;;;;;;3.13;0.60;;;12.30;1.00;;;;;;6178470;23;20682;-81
2023/04/13 13:02:14;;;;;;;0.63;0.40;;;12.40;1.00;;;;;;6179179;23;20189;-81